createdAt,value
2019-05-21T00:01:19.102Z,9.90
2019-05-21T00:03:47.945Z,9.80
2019-05-21T00:06:16.807Z,9.90
2019-05-21T00:08:45.703Z,9.80
2019-05-21T00:11:14.552Z,9.80
2019-05-21T00:13:43.421Z,9.80
2019-05-21T00:16:12.324Z,9.80
2019-05-21T00:18:41.203Z,9.70
2019-05-21T00:21:15.721Z,9.70
2019-05-21T00:23:46.334Z,9.70
2019-05-21T00:26:36.130Z,9.70
2019-05-21T00:29:41.157Z,9.70
2019-05-21T00:32:46.610Z,9.70
2019-05-21T00:35:53.158Z,9.60
2019-05-21T00:38:58.354Z,9.50
2019-05-21T00:42:00.478Z,9.50
2019-05-21T00:44:32.349Z,9.60
2019-05-21T00:47:01.833Z,9.70
2019-05-21T00:49:30.791Z,9.70
2019-05-21T00:52:08.261Z,9.70
2019-05-21T00:54:30.130Z,9.60
2019-05-21T00:56:59.047Z,9.50
2019-05-21T00:59:27.916Z,9.50
2019-05-21T01:01:56.762Z,9.60
2019-05-21T01:04:25.694Z,9.60
2019-05-21T01:06:54.570Z,9.60
2019-05-21T01:09:23.448Z,9.60
2019-05-21T01:11:52.357Z,9.50
2019-05-21T01:14:21.205Z,9.40
2019-05-21T01:16:50.066Z,9.20
2019-05-21T01:19:18.990Z,9.20
2019-05-21T01:21:47.841Z,9.20
2019-05-21T01:24:16.687Z,9.20
2019-05-21T01:26:45.617Z,9.10
2019-05-21T01:29:14.460Z,9.00
2019-05-21T01:31:43.315Z,8.90
2019-05-21T01:34:12.217Z,9.00
2019-05-21T01:36:41.064Z,9.00
2019-05-21T01:39:09.928Z,9.00
2019-05-21T01:41:38.805Z,9.10
2019-05-21T01:44:07.654Z,9.20
2019-05-21T01:46:36.512Z,9.20
2019-05-21T01:49:05.554Z,9.20
2019-05-21T01:51:34.410Z,9.20
2019-05-21T01:54:03.267Z,9.10
2019-05-21T01:56:32.180Z,9.00
2019-05-21T01:59:01.024Z,9.00
2019-05-21T02:01:29.918Z,8.90
2019-05-21T02:03:58.773Z,8.80
2019-05-21T02:06:27.628Z,8.80
2019-05-21T02:08:56.557Z,8.70
2019-05-21T02:11:25.420Z,8.70
2019-05-21T02:13:54.279Z,8.70
2019-05-21T02:16:23.207Z,8.70
2019-05-21T02:18:52.052Z,8.70
2019-05-21T02:21:20.919Z,8.60
2019-05-21T02:23:49.815Z,8.50
2019-05-21T02:26:18.672Z,8.50
2019-05-21T02:28:47.524Z,8.50
2019-05-21T02:31:16.457Z,8.40
2019-05-21T02:33:45.393Z,8.40
2019-05-21T02:36:14.246Z,8.40
2019-05-21T02:38:43.129Z,8.30
2019-05-21T02:41:12.002Z,8.30
2019-05-21T02:43:40.853Z,8.40
2019-05-21T02:46:09.714Z,8.50
2019-05-21T02:48:38.602Z,8.50
2019-05-21T02:51:07.461Z,8.60
2019-05-21T02:53:36.441Z,8.60
2019-05-21T02:56:05.283Z,8.60
2019-05-21T02:58:34.142Z,8.50
2019-05-21T03:01:04.589Z,8.50
2019-05-21T03:03:34.950Z,8.40
2019-05-21T03:06:13.562Z,8.40
2019-05-21T03:08:34.469Z,8.30
2019-05-21T03:11:03.422Z,8.30
2019-05-21T03:13:32.276Z,8.30
2019-05-21T03:16:01.353Z,8.30
2019-05-21T03:18:30.201Z,8.20
2019-05-21T03:20:59.044Z,8.30
2019-05-21T03:23:27.948Z,8.30
2019-05-21T03:25:56.822Z,8.40
2019-05-21T03:28:25.662Z,8.40
2019-05-21T03:30:54.552Z,8.50
2019-05-21T03:33:23.401Z,8.50
2019-05-21T03:35:52.249Z,8.50
2019-05-21T03:38:21.167Z,8.40
2019-05-21T03:40:50.014Z,8.40
2019-05-21T03:43:18.867Z,8.40
2019-05-21T03:45:47.792Z,8.40
2019-05-21T03:48:16.640Z,8.40
2019-05-21T03:50:45.470Z,8.40
2019-05-21T03:53:14.370Z,8.40
2019-05-21T03:55:43.238Z,8.40
2019-05-21T03:58:12.064Z,8.40
2019-05-21T04:00:41.043Z,8.40
2019-05-21T04:03:09.915Z,8.50
2019-05-21T04:05:38.772Z,8.50
2019-05-21T04:08:07.669Z,8.50
2019-05-21T04:10:36.515Z,8.70
2019-05-21T04:13:08.890Z,8.80
2019-05-21T04:15:47.249Z,8.80
2019-05-21T04:18:17.712Z,8.80
2019-05-21T04:20:46.562Z,8.80
2019-05-21T04:23:15.448Z,8.90
2019-05-21T04:25:44.315Z,9.00
2019-05-21T04:28:13.170Z,9.10
2019-05-21T04:30:42.051Z,9.20
2019-05-21T04:33:10.901Z,9.30
2019-05-21T04:35:39.759Z,9.40
2019-05-21T04:38:08.700Z,9.50
2019-05-21T04:40:37.550Z,9.50
2019-05-21T04:43:06.406Z,9.60
2019-05-21T04:45:35.325Z,9.60
2019-05-21T04:48:04.197Z,9.70
2019-05-21T04:50:33.042Z,9.80
2019-05-21T04:53:01.975Z,9.90
2019-05-21T04:55:30.824Z,10.00
2019-05-21T04:57:59.702Z,10.20
2019-05-21T05:00:28.641Z,10.30
2019-05-21T05:02:57.486Z,10.40
2019-05-21T05:05:26.363Z,10.60
2019-05-21T05:07:55.287Z,10.70
2019-05-21T05:10:24.154Z,10.80
2019-05-21T05:12:53.008Z,10.80
2019-05-21T05:15:21.906Z,11.00
2019-05-21T05:17:50.762Z,11.20
2019-05-21T05:20:19.626Z,11.30
2019-05-21T05:22:48.558Z,11.60
2019-05-21T05:25:17.414Z,11.70
2019-05-21T05:27:46.256Z,11.90
2019-05-21T05:30:15.472Z,12.10
2019-05-21T05:32:44.318Z,13.50
2019-05-21T05:35:13.299Z,16.60
2019-05-21T05:37:45.253Z,19.80
2019-05-21T05:40:14.017Z,22.50
2019-05-21T05:42:43.057Z,24.20
2019-05-21T05:45:12.191Z,25.60
2019-05-21T05:47:41.045Z,26.80
2019-05-21T05:50:17.278Z,27.50
2019-05-21T05:52:46.112Z,27.70
2019-05-21T05:55:15.373Z,27.90
2019-05-21T05:57:44.286Z,27.70
2019-05-21T06:00:14.023Z,27.70
2019-05-21T06:02:42.873Z,27.90
2019-05-21T06:05:12.211Z,28.70
2019-05-21T06:07:41.060Z,29.30
2019-05-21T06:10:10.229Z,29.60
2019-05-21T06:12:39.117Z,29.60
2019-05-21T06:15:08.490Z,29.70
2019-05-21T06:17:37.337Z,29.60
2019-05-21T06:20:08.225Z,29.80
2019-05-21T06:22:37.087Z,29.80
2019-05-21T06:25:08.147Z,30.00
2019-05-21T06:27:39.896Z,30.60
2019-05-21T06:30:09.496Z,30.90
2019-05-21T06:32:38.386Z,31.20
2019-05-21T06:35:07.468Z,31.00
2019-05-21T06:37:36.343Z,30.60
2019-05-21T06:40:06.112Z,30.70
2019-05-21T06:42:35.105Z,31.10
2019-05-21T06:45:07.454Z,31.20
2019-05-21T06:47:36.320Z,30.80
2019-05-21T06:50:08.194Z,30.10
2019-05-21T06:52:37.055Z,29.90
2019-05-21T06:55:06.528Z,30.60
2019-05-21T06:57:35.457Z,31.40
2019-05-21T07:00:06.422Z,31.90
2019-05-21T07:02:35.407Z,32.00
2019-05-21T07:05:04.695Z,31.70
2019-05-21T07:07:33.518Z,32.10
2019-05-21T07:10:02.382Z,32.30
2019-05-21T07:12:31.309Z,32.10
2019-05-21T07:15:00.187Z,31.90
2019-05-21T07:17:29.050Z,32.10
2019-05-21T07:19:57.942Z,32.30
2019-05-21T07:22:26.843Z,32.40
2019-05-21T07:24:55.740Z,32.90
2019-05-21T07:27:24.658Z,33.10
2019-05-21T07:29:53.528Z,34.10
2019-05-21T07:32:22.398Z,35.00
2019-05-21T07:34:51.339Z,34.90
2019-05-21T07:37:20.172Z,34.80
2019-05-21T07:39:48.990Z,34.40
2019-05-21T07:42:18.156Z,34.40
2019-05-21T07:44:47.332Z,34.00
2019-05-21T07:47:16.266Z,33.90
2019-05-21T07:49:45.230Z,33.50
2019-05-21T07:52:14.122Z,33.30
2019-05-21T07:54:43.032Z,33.50
2019-05-21T07:57:11.949Z,32.40
2019-05-21T07:59:40.807Z,32.50
2019-05-21T08:02:09.673Z,31.20
2019-05-21T08:04:38.557Z,28.60
2019-05-21T08:07:07.417Z,28.50
2019-05-21T08:09:36.305Z,30.20
2019-05-21T08:12:27.439Z,31.40
2019-05-21T08:14:35.744Z,32.70
2019-05-21T08:17:04.661Z,34.00
2019-05-21T08:19:33.809Z,33.20
2019-05-21T08:22:02.686Z,33.10
2019-05-21T08:24:31.544Z,33.70
2019-05-21T08:27:00.492Z,33.10
2019-05-21T08:29:29.342Z,34.20
2019-05-21T08:31:58.185Z,35.60
2019-05-21T08:34:27.103Z,35.50
2019-05-21T08:36:55.983Z,35.80
2019-05-21T08:39:28.923Z,35.30
2019-05-21T08:41:55.441Z,33.60
2019-05-21T08:44:24.313Z,33.30
2019-05-21T08:46:53.150Z,33.10
2019-05-21T08:49:22.095Z,31.20
2019-05-21T08:51:50.955Z,31.30
2019-05-21T08:54:22.032Z,30.90
2019-05-21T08:56:51.782Z,31.10
2019-05-21T08:59:20.652Z,29.70
2019-05-21T09:01:49.478Z,28.50
2019-05-21T09:04:18.445Z,28.80
2019-05-21T09:06:47.316Z,28.30
2019-05-21T09:09:16.177Z,27.00
2019-05-21T09:11:45.084Z,26.90
2019-05-21T09:14:13.950Z,28.60
2019-05-21T09:16:42.816Z,30.60
2019-05-21T09:19:11.718Z,32.30
2019-05-21T09:21:40.600Z,30.10
2019-05-21T09:24:09.479Z,27.70
2019-05-21T09:26:38.416Z,26.30
2019-05-21T09:29:07.287Z,25.00
2019-05-21T09:31:36.112Z,25.30
2019-05-21T09:34:05.035Z,27.70
2019-05-21T09:36:33.890Z,27.20
2019-05-21T09:39:02.761Z,26.00
2019-05-21T09:41:31.680Z,25.00
2019-05-21T09:44:00.526Z,24.40
2019-05-21T09:46:29.373Z,25.80
2019-05-21T09:48:58.312Z,28.00
2019-05-21T09:51:27.188Z,27.10
2019-05-21T09:53:56.031Z,25.50
2019-05-21T09:56:32.738Z,23.90
2019-05-21T09:59:14.675Z,23.60
2019-05-21T10:01:49.878Z,23.50
2019-05-21T10:04:18.756Z,23.90
2019-05-21T10:06:47.606Z,24.20
2019-05-21T10:09:18.134Z,26.70
2019-05-21T10:11:46.948Z,28.30
2019-05-21T10:14:15.826Z,28.80
2019-05-21T10:16:44.744Z,27.80
2019-05-21T10:19:13.596Z,27.00
2019-05-21T10:21:42.483Z,26.10
2019-05-21T10:24:11.401Z,25.70
2019-05-21T10:26:40.248Z,25.60
2019-05-21T10:29:09.117Z,25.40
2019-05-21T10:31:38.051Z,25.00
2019-05-21T10:34:06.917Z,25.00
2019-05-21T10:36:35.772Z,25.30
2019-05-21T10:39:06.874Z,25.00
2019-05-21T10:41:35.745Z,24.70
2019-05-21T10:44:04.979Z,24.40
2019-05-21T10:46:33.904Z,24.40
2019-05-21T10:49:02.748Z,24.60
2019-05-21T10:51:31.613Z,24.70
2019-05-21T10:54:00.505Z,25.20
2019-05-21T10:56:46.427Z,25.30
2019-05-21T10:58:59.912Z,25.40
2019-05-21T11:01:39.089Z,25.50
2019-05-21T11:04:15.813Z,25.50
2019-05-21T11:06:46.276Z,25.20
2019-05-21T11:09:22.472Z,24.90
2019-05-21T11:11:51.517Z,24.30
2019-05-21T11:14:20.366Z,24.10
2019-05-21T11:16:49.222Z,24.00
2019-05-21T11:19:18.142Z,24.00
2019-05-21T11:21:46.979Z,24.40
2019-05-21T11:24:15.878Z,24.90
2019-05-21T11:26:44.927Z,25.00
2019-05-21T11:29:13.777Z,25.00
2019-05-21T11:31:55.697Z,25.20
2019-05-21T11:34:13.229Z,25.40
2019-05-21T11:36:42.088Z,25.40
2019-05-21T11:39:11.019Z,25.20
2019-05-21T11:41:39.955Z,25.20
2019-05-21T11:44:08.784Z,25.10
2019-05-21T11:46:37.650Z,24.80
2019-05-21T11:49:06.516Z,24.70
2019-05-21T11:51:35.473Z,24.30
2019-05-21T11:54:04.417Z,24.10
2019-05-21T11:56:36.158Z,24.10
2019-05-21T11:59:03.965Z,24.10
2019-05-21T12:01:32.833Z,24.00
2019-05-21T12:04:01.728Z,23.80
2019-05-21T12:06:30.605Z,23.90
2019-05-21T12:08:59.483Z,24.10
2019-05-21T12:11:28.395Z,24.30
2019-05-21T12:13:57.260Z,24.50
2019-05-21T12:16:26.156Z,24.50
2019-05-21T12:18:55.081Z,24.70
2019-05-21T12:21:23.919Z,24.90
2019-05-21T12:23:52.795Z,24.70
2019-05-21T12:26:21.704Z,24.50
2019-05-21T12:28:50.548Z,24.10
2019-05-21T12:31:19.409Z,24.10
2019-05-21T12:33:48.301Z,23.90
2019-05-21T12:36:17.376Z,23.60
2019-05-21T12:38:46.221Z,23.40
2019-05-21T12:41:15.151Z,23.60
2019-05-21T12:43:44.020Z,23.70
2019-05-21T12:46:12.909Z,23.80
2019-05-21T12:48:41.802Z,23.90
2019-05-21T12:51:10.647Z,23.80
2019-05-21T12:53:40.962Z,23.80
2019-05-21T12:56:09.854Z,23.70
2019-05-21T12:58:38.692Z,23.60
2019-05-21T13:01:07.686Z,23.50
2019-05-21T13:03:36.607Z,23.50
2019-05-21T13:06:05.492Z,23.70
2019-05-21T13:08:34.355Z,23.80
2019-05-21T13:11:03.255Z,23.60
2019-05-21T13:13:32.328Z,23.30
2019-05-21T13:16:01.165Z,22.80
2019-05-21T13:18:30.081Z,22.40
2019-05-21T13:20:58.946Z,22.00
2019-05-21T13:23:27.820Z,21.80
2019-05-21T13:25:56.844Z,21.80
2019-05-21T13:28:25.682Z,21.90
2019-05-21T13:30:54.525Z,22.00
2019-05-21T13:33:23.652Z,22.00
2019-05-21T13:35:52.511Z,22.00
2019-05-21T13:38:21.355Z,22.10
2019-05-21T13:40:51.958Z,22.10
2019-05-21T13:43:21.520Z,21.90
2019-05-21T13:45:50.593Z,22.00
2019-05-21T13:48:19.527Z,22.20
2019-05-21T13:50:48.401Z,22.10
2019-05-21T13:53:17.265Z,22.10
2019-05-21T13:55:46.185Z,22.00
2019-05-21T13:58:15.318Z,22.10
2019-05-21T14:00:45.750Z,21.90
2019-05-21T14:03:14.738Z,21.90
2019-05-21T14:05:43.591Z,21.80
2019-05-21T14:08:12.475Z,21.80
2019-05-21T14:10:41.603Z,21.70
2019-05-21T14:13:10.447Z,21.80
2019-05-21T14:15:39.308Z,21.90
2019-05-21T14:18:08.306Z,21.90
2019-05-21T14:20:37.185Z,21.90
2019-05-21T14:23:06.041Z,21.80
2019-05-21T14:25:36.581Z,21.40
2019-05-21T14:28:05.450Z,21.20
2019-05-21T14:30:34.324Z,21.00
2019-05-21T14:33:03.290Z,20.70
2019-05-21T14:35:32.163Z,20.60
2019-05-21T14:38:01.019Z,20.60
2019-05-21T14:40:32.595Z,20.60
2019-05-21T14:43:01.100Z,20.60
2019-05-21T14:45:33.951Z,20.50
2019-05-21T14:48:00.596Z,20.40
2019-05-21T14:50:29.446Z,20.30
2019-05-21T14:52:58.297Z,20.20
2019-05-21T14:55:27.234Z,20.10
2019-05-21T14:57:58.812Z,20.20
2019-05-21T15:00:36.999Z,20.30
2019-05-21T15:03:06.137Z,20.20
2019-05-21T15:05:35.907Z,20.20
2019-05-21T15:08:06.022Z,20.10
2019-05-21T15:10:48.172Z,20.00
2019-05-21T15:13:06.543Z,20.00
2019-05-21T15:15:36.223Z,19.90
2019-05-21T15:18:06.764Z,20.00
2019-05-21T15:20:46.500Z,20.00
2019-05-21T15:23:15.476Z,20.00
2019-05-21T15:25:44.333Z,20.10
2019-05-21T15:28:13.261Z,20.10
2019-05-21T15:30:42.122Z,20.30
2019-05-21T15:33:10.977Z,20.30
2019-05-21T15:35:39.929Z,20.30
2019-05-21T15:38:08.793Z,20.30
2019-05-21T15:40:37.657Z,20.50
2019-05-21T15:43:06.557Z,20.60
2019-05-21T15:45:37.079Z,20.80
2019-05-21T15:48:05.959Z,20.90
2019-05-21T15:50:34.864Z,21.10
2019-05-21T15:53:03.748Z,21.10
2019-05-21T15:55:32.614Z,20.90
2019-05-21T15:58:01.641Z,20.50
2019-05-21T16:00:30.972Z,20.30
2019-05-21T16:03:00.019Z,20.20
2019-05-21T16:05:28.933Z,20.10
2019-05-21T16:07:57.796Z,20.10
2019-05-21T16:10:26.643Z,20.10
2019-05-21T16:12:55.694Z,20.00
2019-05-21T16:15:24.558Z,19.90
2019-05-21T16:17:53.401Z,19.80
2019-05-21T16:20:22.338Z,19.70
2019-05-21T16:22:51.185Z,19.70
2019-05-21T16:25:20.075Z,19.60
2019-05-21T16:27:48.989Z,19.60
2019-05-21T16:30:17.957Z,19.60
2019-05-21T16:32:46.815Z,19.70
2019-05-21T16:35:16.429Z,19.70
2019-05-21T16:37:45.265Z,19.80
2019-05-21T16:40:14.821Z,19.80
2019-05-21T16:42:43.736Z,19.80
2019-05-21T16:45:12.842Z,19.70
2019-05-21T16:47:46.218Z,19.70
2019-05-21T16:50:12.762Z,19.70
2019-05-21T16:52:41.634Z,19.60
2019-05-21T16:55:10.804Z,19.60
2019-05-21T16:57:39.691Z,19.50
2019-05-21T17:00:10.142Z,19.50
2019-05-21T17:02:39.006Z,19.50
2019-05-21T17:05:08.758Z,19.50
2019-05-21T17:07:37.621Z,19.40
2019-05-21T17:10:06.816Z,19.20
2019-05-21T17:12:35.835Z,19.20
2019-05-21T17:15:06.423Z,19.10
2019-05-21T17:17:35.338Z,19.00
2019-05-21T17:20:08.837Z,18.90
2019-05-21T17:22:37.836Z,18.80
2019-05-21T17:25:08.439Z,18.80
2019-05-21T17:27:37.347Z,18.60
2019-05-21T17:30:10.581Z,18.60
2019-05-21T17:32:39.434Z,18.60
2019-05-21T17:35:09.057Z,18.60
2019-05-21T17:37:37.911Z,18.50
2019-05-21T17:40:07.275Z,18.30
2019-05-21T17:42:36.272Z,18.20
2019-05-21T17:45:11.933Z,18.10
2019-05-21T17:47:40.854Z,18.10
2019-05-21T17:50:10.325Z,18.00
2019-05-21T17:52:39.198Z,18.00
2019-05-21T17:55:08.537Z,18.00
2019-05-21T17:57:37.887Z,18.00
2019-05-21T18:00:11.786Z,18.00
2019-05-21T18:02:43.727Z,18.00
2019-05-21T18:05:12.975Z,18.00
2019-05-21T18:07:42.839Z,18.00
2019-05-21T18:10:13.744Z,18.00
2019-05-21T18:12:42.892Z,18.00
2019-05-21T18:15:13.057Z,18.10
2019-05-21T18:17:42.954Z,18.00
2019-05-21T18:20:13.118Z,18.00
2019-05-21T18:22:43.782Z,18.00
2019-05-21T18:25:12.796Z,18.00
2019-05-21T18:27:41.955Z,17.90
2019-05-21T18:30:13.120Z,17.90
2019-05-21T18:32:42.037Z,17.80
2019-05-21T18:35:11.594Z,17.80
2019-05-21T18:37:40.447Z,17.80
2019-05-21T18:40:09.767Z,17.70
2019-05-21T18:42:38.639Z,17.70
2019-05-21T18:45:08.694Z,17.80
2019-05-21T18:47:37.611Z,17.80
2019-05-21T18:50:07.677Z,17.90
2019-05-21T18:52:36.835Z,17.90
2019-05-21T18:55:06.788Z,17.90
2019-05-21T18:57:36.072Z,17.80
2019-05-21T19:00:10.674Z,17.70
2019-05-21T19:02:39.749Z,17.70
2019-05-21T19:05:08.889Z,17.60
2019-05-21T19:07:37.995Z,17.50
2019-05-21T19:10:08.927Z,17.40
2019-05-21T19:12:38.872Z,17.40
2019-05-21T19:15:09.342Z,17.40
2019-05-21T19:17:38.180Z,17.30
2019-05-21T19:20:08.300Z,17.30
2019-05-21T19:22:37.234Z,17.30
2019-05-21T19:25:09.913Z,17.20
2019-05-21T19:27:38.846Z,17.10
2019-05-21T19:30:08.986Z,17.10
2019-05-21T19:32:37.854Z,17.00
2019-05-21T19:35:08.530Z,16.90
2019-05-21T19:37:37.470Z,16.90
2019-05-21T19:40:07.291Z,16.90
2019-05-21T19:42:36.308Z,16.80
2019-05-21T19:45:08.538Z,16.80
2019-05-21T19:47:37.452Z,16.70
2019-05-21T19:50:08.829Z,16.60
2019-05-21T19:52:37.756Z,16.70
2019-05-21T19:55:08.329Z,16.60
2019-05-21T19:57:38.611Z,16.50
2019-05-21T20:00:08.740Z,16.40
2019-05-21T20:02:37.704Z,16.40
2019-05-21T20:05:08.089Z,16.30
2019-05-21T20:07:37.013Z,16.30
2019-05-21T20:10:07.491Z,16.30
2019-05-21T20:12:36.913Z,16.10
2019-05-21T20:15:07.964Z,16.00
2019-05-21T20:17:36.829Z,16.00
2019-05-21T20:20:08.422Z,16.00
2019-05-21T20:22:38.053Z,16.00
2019-05-21T20:25:10.263Z,16.00
2019-05-21T20:27:39.169Z,15.90
2019-05-21T20:30:13.114Z,15.90
2019-05-21T20:32:41.128Z,16.00
2019-05-21T20:35:12.240Z,15.90
2019-05-21T20:37:41.369Z,15.80
2019-05-21T20:40:15.001Z,15.80
2019-05-21T20:42:44.764Z,15.70
2019-05-21T20:45:15.779Z,15.60
2019-05-21T20:47:44.776Z,15.60
2019-05-21T20:50:15.798Z,15.60
2019-05-21T20:52:44.910Z,15.60
2019-05-21T20:55:15.238Z,15.70
2019-05-21T20:57:44.103Z,15.70
2019-05-21T21:00:15.275Z,15.80
2019-05-21T21:02:44.755Z,15.90
2019-05-21T21:05:14.128Z,15.80
2019-05-21T21:07:43.129Z,15.80
2019-05-21T21:10:12.814Z,15.70
2019-05-21T21:12:42.180Z,15.60
2019-05-21T21:15:11.745Z,15.50
2019-05-21T21:17:40.631Z,15.40
2019-05-21T21:20:09.834Z,15.30
2019-05-21T21:22:38.716Z,15.20
2019-05-21T21:25:08.779Z,15.10
2019-05-21T21:27:37.657Z,15.10
2019-05-21T21:30:08.999Z,15.10
2019-05-21T21:32:38.225Z,15.10
2019-05-21T21:35:09.103Z,15.10
2019-05-21T21:37:38.346Z,15.10
2019-05-21T21:40:09.920Z,15.10
2019-05-21T21:42:39.661Z,15.10
2019-05-21T21:45:08.763Z,15.00
2019-05-21T21:47:38.121Z,15.00
2019-05-21T21:50:07.889Z,15.00
2019-05-21T21:52:37.002Z,15.00
2019-05-21T21:55:07.260Z,15.00
2019-05-21T21:57:36.123Z,14.90
2019-05-21T22:00:16.592Z,14.90
2019-05-21T22:02:45.679Z,14.90
2019-05-21T22:05:15.143Z,14.80
2019-05-21T22:07:44.559Z,14.80
2019-05-21T22:10:13.542Z,14.90
2019-05-21T22:12:43.705Z,14.80
2019-05-21T22:15:12.706Z,14.80
2019-05-21T22:17:41.873Z,14.70
2019-05-21T22:20:13.753Z,14.70
2019-05-21T22:22:42.889Z,14.70
2019-05-21T22:25:12.163Z,14.60
2019-05-21T22:27:41.015Z,14.60
2019-05-21T22:30:10.580Z,14.60
2019-05-21T22:32:39.614Z,14.60
2019-05-21T22:35:08.580Z,14.60
2019-05-21T22:37:37.491Z,14.50
2019-05-21T22:40:07.475Z,14.50
2019-05-21T22:42:36.449Z,14.60
2019-05-21T22:45:09.945Z,14.50
2019-05-21T22:47:38.813Z,14.40
2019-05-21T22:50:08.503Z,14.30
2019-05-21T22:52:37.414Z,14.30
2019-05-21T22:55:07.672Z,14.30
2019-05-21T22:57:36.486Z,14.40
2019-05-21T23:00:08.039Z,14.40
2019-05-21T23:02:50.350Z,14.40
2019-05-21T23:05:28.212Z,14.40
2019-05-21T23:07:57.278Z,14.30
2019-05-21T23:10:26.436Z,14.30
2019-05-21T23:12:55.459Z,14.20
2019-05-21T23:15:25.680Z,14.20
2019-05-21T23:17:55.400Z,14.20
2019-05-21T23:20:25.921Z,14.10
2019-05-21T23:22:56.395Z,14.20
2019-05-21T23:25:25.551Z,14.20
2019-05-21T23:27:54.457Z,14.20
2019-05-21T23:30:23.324Z,14.20
2019-05-21T23:33:04.944Z,14.20
2019-05-21T23:35:35.562Z,14.10
2019-05-21T23:38:06.103Z,14.00
2019-05-21T23:40:36.169Z,13.90
2019-05-21T23:43:06.178Z,13.90
2019-05-21T23:45:35.434Z,14.00
2019-05-21T23:48:06.631Z,14.00
2019-05-21T23:50:35.554Z,14.00
2019-05-21T23:53:06.787Z,14.10
2019-05-21T23:55:36.159Z,14.10
2019-05-21T23:58:05.889Z,14.10
